createdAt,value
2023-04-23T00:00:43.960Z,6.72
2023-04-23T00:05:38.255Z,6.69
2023-04-23T00:10:31.443Z,6.62
2023-04-23T00:15:24.187Z,6.55
2023-04-23T00:20:18.912Z,6.52
2023-04-23T00:25:12.129Z,6.46
2023-04-23T00:30:05.853Z,6.40
2023-04-23T00:34:58.585Z,6.35
2023-04-23T00:39:51.460Z,6.33
2023-04-23T00:44:44.562Z,6.25
2023-04-23T00:49:39.498Z,6.19
2023-04-23T00:54:32.230Z,6.11
2023-04-23T00:59:28.892Z,6.08
2023-04-23T01:04:22.948Z,6.07
2023-04-23T01:09:18.510Z,6.01
2023-04-23T01:14:12.110Z,5.97
2023-04-23T01:19:05.942Z,5.92
2023-04-23T01:23:58.959Z,5.86
2023-04-23T01:28:52.335Z,5.80
2023-04-23T01:33:45.711Z,5.73
2023-04-23T01:38:39.910Z,5.68
2023-04-23T01:43:33.718Z,5.62
2023-04-23T01:48:27.058Z,5.53
2023-04-23T01:53:19.880Z,5.51
2023-04-23T01:58:12.570Z,5.50
2023-04-23T02:03:06.350Z,5.45
2023-04-23T02:07:59.347Z,5.41
2023-04-23T02:12:52.065Z,5.34
2023-04-23T02:17:44.790Z,5.27
2023-04-23T02:22:41.045Z,5.22
2023-04-23T02:27:33.966Z,5.17
2023-04-23T02:32:28.117Z,5.17
2023-04-23T02:37:21.385Z,5.18
2023-04-23T02:42:14.714Z,5.16
2023-04-23T02:47:07.486Z,5.10
2023-04-23T02:52:00.188Z,5.01
2023-04-23T02:56:53.394Z,4.92
2023-04-23T03:01:46.078Z,4.86
2023-04-23T03:06:39.710Z,4.82
2023-04-23T03:11:32.611Z,4.78
2023-04-23T03:16:25.460Z,4.73
2023-04-23T03:21:19.404Z,4.69
2023-04-23T03:26:12.467Z,4.65
2023-04-23T03:31:05.198Z,4.63
2023-04-23T03:35:58.404Z,4.62
2023-04-23T03:40:54.183Z,4.58
2023-04-23T03:45:47.412Z,4.57
2023-04-23T03:50:41.388Z,4.63
2023-04-23T03:55:45.608Z,4.64
2023-04-23T04:00:38.661Z,4.78
2023-04-23T04:05:31.378Z,5.26
2023-04-23T04:10:24.368Z,5.59
2023-04-23T04:15:19.987Z,5.69
2023-04-23T04:20:13.208Z,5.73
2023-04-23T04:25:07.053Z,5.62
2023-04-23T04:29:59.737Z,5.55
2023-04-23T04:34:52.780Z,5.51
2023-04-23T04:39:45.662Z,5.55
2023-04-23T04:44:38.972Z,5.54
2023-04-23T04:49:33.023Z,5.54
2023-04-23T04:54:25.717Z,5.60
2023-04-23T04:59:18.408Z,5.74
2023-04-23T05:04:12.448Z,5.80
2023-04-23T05:09:05.390Z,5.87
2023-04-23T05:13:58.219Z,6.00
2023-04-23T05:18:51.657Z,6.15
2023-04-23T05:23:44.355Z,6.32
2023-04-23T05:28:38.035Z,6.50
2023-04-23T05:33:36.442Z,6.71
2023-04-23T05:38:35.588Z,7.00
2023-04-23T05:43:28.333Z,7.28
2023-04-23T05:48:21.001Z,7.62
2023-04-23T05:53:13.898Z,8.14
2023-04-23T05:58:06.596Z,8.46
2023-04-23T06:02:59.538Z,8.74
2023-04-23T06:07:53.236Z,9.04
2023-04-23T06:12:45.984Z,9.53
2023-04-23T06:17:38.943Z,10.37
2023-04-23T06:22:31.923Z,11.15
2023-04-23T06:27:24.637Z,11.76
2023-04-23T06:32:20.412Z,12.23
2023-04-23T06:37:13.316Z,12.43
2023-04-23T06:42:05.991Z,12.73
2023-04-23T06:47:01.887Z,14.36
2023-04-23T06:51:57.503Z,17.26
2023-04-23T06:56:51.183Z,20.43
2023-04-23T07:01:44.106Z,22.11
2023-04-23T07:06:36.909Z,22.44
2023-04-23T07:11:31.916Z,22.47
2023-04-23T07:16:25.892Z,24.56
2023-04-23T07:21:18.739Z,26.93
2023-04-23T07:26:12.037Z,28.85
2023-04-23T07:31:04.906Z,31.04
2023-04-23T07:35:57.597Z,33.06
2023-04-23T07:40:50.422Z,32.59
2023-04-23T07:45:43.195Z,31.55
2023-04-23T07:50:36.033Z,31.34
2023-04-23T07:55:29.102Z,31.49
2023-04-23T08:00:21.888Z,32.60
2023-04-23T08:05:14.823Z,33.08
2023-04-23T08:10:08.125Z,32.30
2023-04-23T08:15:01.719Z,30.11
2023-04-23T08:20:02.258Z,29.12
2023-04-23T08:24:55.014Z,29.02
2023-04-23T08:29:47.850Z,29.40
2023-04-23T08:34:40.720Z,30.26
2023-04-23T08:39:36.153Z,29.68
2023-04-23T08:44:29.580Z,29.20
2023-04-23T08:49:22.561Z,28.23
2023-04-23T08:54:20.744Z,28.99
2023-04-23T08:59:13.700Z,29.55
2023-04-23T09:04:10.376Z,28.70
2023-04-23T09:09:05.204Z,28.70
2023-04-23T09:13:58.716Z,28.90
2023-04-23T09:18:52.769Z,29.43
2023-04-23T09:23:45.697Z,28.91
2023-04-23T09:28:41.491Z,29.58
2023-04-23T09:33:36.539Z,30.18
2023-04-23T09:38:29.519Z,31.74
2023-04-23T09:43:22.478Z,31.28
2023-04-23T09:48:15.293Z,30.92
2023-04-23T09:53:08.894Z,31.55
2023-04-23T09:58:02.343Z,33.05
2023-04-23T10:02:55.698Z,34.68
2023-04-23T10:07:49.638Z,35.78
2023-04-23T10:12:54.233Z,36.70
2023-04-23T10:17:49.611Z,36.90
2023-04-23T10:22:45.440Z,37.12
2023-04-23T10:27:54.445Z,37.74
2023-04-23T10:32:49.616Z,37.99
2023-04-23T10:37:43.132Z,37.97
2023-04-23T10:42:36.406Z,37.63
2023-04-23T10:47:29.188Z,37.38
2023-04-23T10:52:25.121Z,37.63
2023-04-23T10:57:19.377Z,37.13
2023-04-23T11:02:13.375Z,36.75
2023-04-23T11:07:10.396Z,36.54
2023-04-23T11:12:03.819Z,36.48
2023-04-23T11:16:56.832Z,35.90
2023-04-23T11:21:59.887Z,35.39
2023-04-23T11:26:55.519Z,34.97
2023-04-23T11:32:01.419Z,34.35
2023-04-23T11:36:56.917Z,33.47
2023-04-23T11:41:50.327Z,32.01
2023-04-23T11:46:43.098Z,30.63
2023-04-23T11:51:36.598Z,29.43
2023-04-23T11:56:31.455Z,29.00
2023-04-23T12:01:24.425Z,28.64
2023-04-23T12:06:19.199Z,28.25
2023-04-23T12:11:13.285Z,28.19
2023-04-23T12:16:06.308Z,28.12
2023-04-23T12:21:08.236Z,27.90
2023-04-23T12:26:00.959Z,27.78
2023-04-23T12:30:53.705Z,27.53
2023-04-23T12:35:48.266Z,27.33
2023-04-23T12:40:41.674Z,27.44
2023-04-23T12:45:38.245Z,27.32
2023-04-23T12:50:31.368Z,27.24
2023-04-23T12:55:24.143Z,27.13
2023-04-23T13:00:17.598Z,27.06
2023-04-23T13:05:10.436Z,27.06
2023-04-23T13:10:03.284Z,27.07
2023-04-23T13:14:56.100Z,27.05
2023-04-23T13:19:48.806Z,26.99
2023-04-23T13:24:41.484Z,26.93
2023-04-23T13:29:34.234Z,26.88
2023-04-23T13:34:26.915Z,26.85
2023-04-23T13:39:20.559Z,26.88
2023-04-23T13:44:14.113Z,26.68
2023-04-23T13:49:07.444Z,26.65
2023-04-23T13:54:00.130Z,26.70
2023-04-23T13:58:53.125Z,26.50
2023-04-23T14:03:47.378Z,26.56
2023-04-23T14:08:40.191Z,26.50
2023-04-23T14:13:34.074Z,26.53
2023-04-23T14:18:27.433Z,26.51
2023-04-23T14:23:26.650Z,26.38
2023-04-23T14:28:25.453Z,26.27
2023-04-23T14:33:18.161Z,26.06
2023-04-23T14:38:10.896Z,26.05
2023-04-23T14:43:14.464Z,25.91
2023-04-23T14:48:08.453Z,25.84
2023-04-23T14:53:03.496Z,25.66
2023-04-23T14:57:56.394Z,25.47
2023-04-23T15:02:49.281Z,25.36
2023-04-23T15:07:42.164Z,25.45
2023-04-23T15:12:39.711Z,25.40
2023-04-23T15:17:33.345Z,25.25
2023-04-23T15:22:26.307Z,25.14
2023-04-23T15:27:19.063Z,25.07
2023-04-23T15:32:12.233Z,25.05
2023-04-23T15:37:04.982Z,24.85
2023-04-23T15:41:58.301Z,24.69
2023-04-23T15:46:51.019Z,24.57
2023-04-23T15:51:44.081Z,24.40
2023-04-23T15:56:37.760Z,24.31
2023-04-23T16:01:31.198Z,24.19
2023-04-23T16:06:24.059Z,24.03
2023-04-23T16:11:16.840Z,23.81
2023-04-23T16:16:10.556Z,23.64
2023-04-23T16:21:03.453Z,23.50
2023-04-23T16:25:57.278Z,23.36
2023-04-23T16:30:51.055Z,23.17
2023-04-23T16:35:43.960Z,22.94
2023-04-23T16:40:36.713Z,22.69
2023-04-23T16:45:29.425Z,22.51
2023-04-23T16:50:23.136Z,22.27
2023-04-23T16:55:16.767Z,21.97
2023-04-23T17:00:10.581Z,21.56
2023-04-23T17:05:03.386Z,21.17
2023-04-23T17:09:56.166Z,20.80
2023-04-23T17:14:48.922Z,20.42
2023-04-23T17:19:41.938Z,20.08
2023-04-23T17:24:35.945Z,19.76
2023-04-23T17:29:29.998Z,19.44
2023-04-23T17:34:22.932Z,19.14
2023-04-23T17:39:19.963Z,18.85
2023-04-23T17:44:12.685Z,18.57
2023-04-23T17:49:05.350Z,18.28
2023-04-23T17:53:59.740Z,18.03
2023-04-23T17:58:53.153Z,17.79
2023-04-23T18:03:48.418Z,17.53
2023-04-23T18:08:42.855Z,17.29
2023-04-23T18:13:38.797Z,17.07
2023-04-23T18:18:32.663Z,16.84
2023-04-23T18:23:26.313Z,16.61
2023-04-23T18:28:19.023Z,16.40
2023-04-23T18:33:27.522Z,16.20
2023-04-23T18:38:31.838Z,16.01
2023-04-23T18:43:25.952Z,15.84
2023-04-23T18:48:34.254Z,15.70
2023-04-23T18:53:26.943Z,15.49
2023-04-23T18:58:20.077Z,15.32
2023-04-23T19:03:25.355Z,15.15
2023-04-23T19:08:19.921Z,15.01
2023-04-23T19:13:12.646Z,14.86
2023-04-23T19:18:06.205Z,14.73
2023-04-23T19:22:58.984Z,14.58
2023-04-23T19:27:52.104Z,14.45
2023-04-23T19:32:44.979Z,14.30
2023-04-23T19:37:37.713Z,14.17
2023-04-23T19:42:32.303Z,14.03
2023-04-23T19:47:25.004Z,13.90
2023-04-23T19:52:19.535Z,13.79
2023-04-23T19:57:12.420Z,13.64
2023-04-23T20:02:05.100Z,13.53
2023-04-23T20:06:57.781Z,13.38
2023-04-23T20:11:50.590Z,13.29
2023-04-23T20:16:43.636Z,13.20
2023-04-23T20:21:37.005Z,13.11
2023-04-23T20:26:29.796Z,12.98
2023-04-23T20:31:22.564Z,12.87
2023-04-23T20:36:16.118Z,12.76
2023-04-23T20:41:11.082Z,12.64
2023-04-23T20:46:03.880Z,12.50
2023-04-23T20:50:57.359Z,12.36
2023-04-23T20:55:50.109Z,12.22
2023-04-23T21:00:42.902Z,12.15
2023-04-23T21:05:35.650Z,12.10
2023-04-23T21:10:28.841Z,12.02
2023-04-23T21:15:21.585Z,11.95
2023-04-23T21:20:14.706Z,11.84
2023-04-23T21:25:07.753Z,11.77
2023-04-23T21:30:01.903Z,11.68
2023-04-23T21:34:54.606Z,11.61
2023-04-23T21:39:47.751Z,11.53
2023-04-23T21:44:41.022Z,11.49
2023-04-23T21:49:33.935Z,11.45
2023-04-23T21:54:26.690Z,11.36
2023-04-23T21:59:20.246Z,11.26
2023-04-23T22:04:13.422Z,11.22
2023-04-23T22:09:07.560Z,11.23
2023-04-23T22:14:00.576Z,11.22
2023-04-23T22:18:53.773Z,11.16
2023-04-23T22:23:46.440Z,11.12
2023-04-23T22:28:39.236Z,11.12
2023-04-23T22:33:31.935Z,11.05
2023-04-23T22:38:25.585Z,11.00
2023-04-23T22:43:18.249Z,10.92
2023-04-23T22:48:11.665Z,10.87
2023-04-23T22:53:04.373Z,10.79
2023-04-23T22:57:57.159Z,10.71
2023-04-23T23:02:50.002Z,10.62
2023-04-23T23:07:42.814Z,10.53
2023-04-23T23:12:36.649Z,10.51
2023-04-23T23:17:29.735Z,10.46
2023-04-23T23:22:22.433Z,10.36
2023-04-23T23:27:15.208Z,10.28
2023-04-23T23:32:07.923Z,10.22
2023-04-23T23:37:00.678Z,10.16
2023-04-23T23:41:53.345Z,10.09
2023-04-23T23:46:46.103Z,10.04
2023-04-23T23:51:38.892Z,10.01
2023-04-23T23:56:31.641Z,9.94
